Time;durP1;ratioP1;P1;durP2;ratioP2;P2;SDS_P1;SDS_P2;PMS_P1;PMS_P2;Temp;Humidity;BMP_temperature;BMP_pressure;BME280_temperature;BME280_humidity;BME280_pressure;Samples;Min_cycle;Max_cycle;Signal;HPM_P1;HPM_P2
2023/12/18 00:01:12;;;;;;;19.00;17.70;;;8.00;24.90;;;;;;4899463;29;20216;-49
2023/12/18 00:03:38;;;;;;;19.27;17.97;;;8.10;24.70;;;;;;4901064;29;20420;-49
2023/12/18 00:06:04;;;;;;;19.60;18.17;;;8.20;24.60;;;;;;4913148;29;20244;-46
2023/12/18 00:08:30;;;;;;;18.20;16.80;;;8.20;24.30;;;;;;4900421;29;20189;-48
2023/12/18 00:10:55;;;;;;;18.33;17.00;;;8.10;24.30;;;;;;4900387;29;20771;-51
2023/12/18 00:13:21;;;;;;;19.20;17.80;;;8.10;24.40;;;;;;4900825;29;20355;-55
2023/12/18 00:15:47;;;;;;;18.53;17.13;;;8.10;24.40;;;;;;4901475;29;20187;-56
2023/12/18 00:18:12;;;;;;;19.10;17.70;;;8.10;24.30;;;;;;4914364;29;20192;-56
2023/12/18 00:20:38;;;;;;;18.40;17.20;;;8.10;24.40;;;;;;4903214;29;20596;-56
2023/12/18 00:23:03;;;;;;;17.90;16.60;;;8.10;24.40;;;;;;4899434;29;20212;-56
2023/12/18 00:25:29;;;;;;;18.03;16.73;;;8.10;24.30;;;;;;4904884;29;20199;-56
2023/12/18 00:27:55;;;;;;;19.67;18.27;;;8.10;24.20;;;;;;4907325;29;20188;-56
2023/12/18 00:30:20;;;;;;;18.80;17.50;;;8.10;24.20;;;;;;4901385;29;20185;-56
2023/12/18 00:32:46;;;;;;;18.67;17.37;;;8.20;24.20;;;;;;4900401;29;20550;-54
2023/12/18 00:35:12;;;;;;;18.90;17.60;;;8.10;24.20;;;;;;4901121;29;20200;-56
2023/12/18 00:37:37;;;;;;;20.13;18.60;;;8.20;24.20;;;;;;4900126;29;20196;-56
2023/12/18 00:40:03;;;;;;;17.77;16.57;;;7.80;24.50;;;;;;4900112;29;20508;-55
2023/12/18 00:42:29;;;;;;;18.80;17.40;;;7.70;25.40;;;;;;4905346;29;20220;-55
2023/12/18 00:44:55;;;;;;;19.27;17.77;;;7.60;25.50;;;;;;4906617;29;20428;-56
2023/12/18 00:47:20;;;;;;;19.20;17.80;;;7.50;25.90;;;;;;4894108;29;20207;-56
2023/12/18 00:49:48;;;;;;;20.10;18.57;;;7.60;25.70;;;;;;4899997;29;20292;-55
2023/12/18 00:52:14;;;;;;;18.90;17.70;;;7.70;25.40;;;;;;4904422;29;20565;-55
2023/12/18 00:54:40;;;;;;;19.07;17.70;;;7.70;25.20;;;;;;4920562;29;20430;-55
2023/12/18 00:57:05;;;;;;;17.00;15.80;;;7.80;25.00;;;;;;4922504;29;20220;-56
2023/12/18 00:59:31;;;;;;;20.00;18.60;;;7.90;24.70;;;;;;4911257;29;20192;-56
2023/12/18 01:01:56;;;;;;;17.47;16.20;;;7.90;24.50;;;;;;4907964;29;20223;-56
2023/12/18 01:04:22;;;;;;;18.63;17.10;;;7.80;24.50;;;;;;4901758;29;20615;-56
2023/12/18 01:06:47;;;;;;;17.67;16.47;;;7.80;24.30;;;;;;4903435;29;20234;-50
2023/12/18 01:09:13;;;;;;;17.70;16.50;;;7.60;25.10;;;;;;4903274;29;20651;-49
2023/12/18 01:11:39;;;;;;;18.80;17.40;;;7.60;25.30;;;;;;4908250;29;20188;-48
2023/12/18 01:14:04;;;;;;;20.17;18.67;;;7.60;25.30;;;;;;4901662;29;20196;-50
2023/12/18 01:16:30;;;;;;;18.37;17.03;;;7.70;25.00;;;;;;4904052;29;20200;-49
2023/12/18 01:18:56;;;;;;;17.10;15.90;;;7.70;25.00;;;;;;4897100;29;20197;-51
2023/12/18 01:21:22;;;;;;;18.87;17.47;;;7.70;24.80;;;;;;4896982;29;20588;-49
2023/12/18 01:23:48;;;;;;;17.47;16.17;;;7.70;24.70;;;;;;4903893;29;20220;-48
2023/12/18 01:26:14;;;;;;;17.10;15.83;;;7.70;24.80;;;;;;4915646;29;20843;-57
2023/12/18 01:28:44;;;;;;;16.47;15.30;;;7.70;24.60;;;;;;4908398;29;20423;-56
2023/12/18 01:31:20;;;;;;;18.20;16.90;;;7.40;25.00;;;;;;4913035;29;20672;-48
2023/12/18 01:33:46;;;;;;;16.60;15.50;;;7.40;25.70;;;;;;4914725;29;20432;-50
2023/12/18 01:36:11;;;;;;;16.63;15.37;;;7.30;25.50;;;;;;4899195;29;20483;-47
2023/12/18 01:38:37;;;;;;;16.90;15.70;;;7.10;26.10;;;;;;4898822;29;20215;-51
2023/12/18 01:41:02;;;;;;;16.63;15.43;;;7.10;26.60;;;;;;4915984;29;20234;-51
2023/12/18 01:43:28;;;;;;;17.30;16.00;;;7.00;26.20;;;;;;4903861;29;20275;-47
2023/12/18 01:45:59;;;;;;;16.47;15.40;;;7.00;26.80;;;;;;4914571;29;20535;-48
2023/12/18 01:48:26;;;;;;;18.07;16.73;;;7.10;26.60;;;;;;4912660;29;20464;-48
2023/12/18 01:50:56;;;;;;;18.50;17.20;;;7.10;26.30;;;;;;4899332;29;20795;-47
2023/12/18 01:53:27;;;;;;;19.43;17.83;;;7.10;26.60;;;;;;4898969;29;20432;-50
2023/12/18 01:55:54;;;;;;;19.63;18.30;;;7.10;26.60;;;;;;4898880;29;20429;-47
2023/12/18 01:58:19;;;;;;;20.20;18.63;;;7.20;26.30;;;;;;4898287;29;20799;-49
2023/12/18 02:00:46;;;;;;;21.13;19.57;;;7.30;25.90;;;;;;4907984;29;20468;-48
2023/12/18 02:03:12;;;;;;;20.10;18.60;;;7.30;25.70;;;;;;4914690;29;20185;-57
2023/12/18 02:05:39;;;;;;;18.23;16.93;;;7.30;26.00;;;;;;4917199;29;20424;-56
2023/12/18 02:08:06;;;;;;;19.83;18.23;;;7.20;26.20;;;;;;4898480;29;20421;-56
2023/12/18 02:10:32;;;;;;;19.60;18.20;;;7.20;26.10;;;;;;4908954;29;20427;-57
2023/12/18 02:12:58;;;;;;;19.17;17.87;;;7.30;25.60;;;;;;4904904;29;20428;-56
2023/12/18 02:15:23;;;;;;;20.77;18.90;;;7.20;26.30;;;;;;4913328;29;20433;-56
2023/12/18 02:17:50;;;;;;;24.80;22.80;;;7.20;26.20;;;;;;4901634;29;20208;-55
2023/12/18 02:20:15;;;;;;;20.43;19.03;;;7.30;26.10;;;;;;4903479;29;20231;-55
2023/12/18 02:22:47;;;;;;;24.57;22.50;;;7.40;25.60;;;;;;4910296;29;20429;-56
2023/12/18 02:25:15;;;;;;;20.33;18.87;;;7.40;25.70;;;;;;4913705;29;20192;-56
2023/12/18 02:27:43;;;;;;;18.97;17.57;;;7.50;25.60;;;;;;4910578;29;20424;-55
2023/12/18 02:30:14;;;;;;;19.00;17.50;;;7.20;25.70;;;;;;4899003;29;21412;-58
2023/12/18 02:32:39;;;;;;;17.63;16.33;;;7.30;26.40;;;;;;4898851;29;20432;-57
2023/12/18 02:35:06;;;;;;;18.40;17.03;;;7.30;25.30;;;;;;4913140;29;20795;-56
2023/12/18 02:37:32;;;;;;;18.90;17.60;;;7.20;25.70;;;;;;4911934;29;20215;-56
2023/12/18 02:39:58;;;;;;;18.87;17.47;;;7.10;26.10;;;;;;4901674;29;20425;-56
2023/12/18 02:42:23;;;;;;;19.10;17.60;;;7.00;26.40;;;;;;4898675;29;20216;-55
2023/12/18 02:44:49;;;;;;;18.83;17.63;;;6.80;26.50;;;;;;4910971;29;20192;-55
2023/12/18 02:47:15;;;;;;;20.20;18.70;;;6.70;27.00;;;;;;4912300;29;20723;-56
2023/12/18 02:49:40;;;;;;;19.30;17.90;;;6.80;26.90;;;;;;4911063;29;20268;-56
2023/12/18 02:52:06;;;;;;;20.77;18.97;;;6.90;26.80;;;;;;4908122;29;20248;-56
2023/12/18 02:54:31;;;;;;;21.97;20.20;;;7.00;26.20;;;;;;4900960;29;20323;-55
2023/12/18 02:56:57;;;;;;;21.30;19.80;;;7.10;25.90;;;;;;4906493;29;20558;-56
2023/12/18 02:59:22;;;;;;;19.67;18.37;;;7.20;25.80;;;;;;4910739;29;20503;-56
2023/12/18 03:01:48;;;;;;;20.40;19.00;;;7.30;25.70;;;;;;4915404;29;20571;-56
2023/12/18 03:04:18;;;;;;;20.53;19.23;;;7.30;25.30;;;;;;4902600;29;20189;-56
2023/12/18 03:06:45;;;;;;;20.47;19.13;;;7.40;25.00;;;;;;4904232;29;20196;-56
2023/12/18 03:09:10;;;;;;;20.23;18.60;;;7.20;25.30;;;;;;4916027;29;20511;-56
2023/12/18 03:12:26;;;;;;;19.53;18.43;;;7.30;25.30;;;;;;4904150;29;20527;-56
2023/12/18 03:14:52;;;;;;;19.70;18.33;;;7.40;25.20;;;;;;4925996;29;20187;-56
2023/12/18 03:17:17;;;;;;;19.00;17.77;;;7.40;24.80;;;;;;4898196;29;20420;-56
2023/12/18 03:19:43;;;;;;;20.97;19.60;;;7.40;24.80;;;;;;4898337;29;20555;-56
2023/12/18 03:22:08;;;;;;;18.70;17.23;;;7.50;24.70;;;;;;4898384;29;20212;-56
2023/12/18 03:24:34;;;;;;;18.87;17.67;;;7.40;24.50;;;;;;4902311;29;20200;-56
2023/12/18 03:26:59;;;;;;;18.70;17.43;;;7.30;25.10;;;;;;4900433;29;20528;-56
2023/12/18 03:29:25;;;;;;;18.20;17.00;;;7.30;25.10;;;;;;4905852;29;20224;-56
2023/12/18 03:31:51;;;;;;;17.13;15.93;;;7.40;25.10;;;;;;4898935;29;20185;-56
2023/12/18 03:34:16;;;;;;;17.60;16.60;;;7.40;24.90;;;;;;4913732;29;20428;-56
2023/12/18 03:36:42;;;;;;;16.50;15.40;;;7.50;24.70;;;;;;4903862;29;20704;-55
2023/12/18 03:39:08;;;;;;;17.57;16.47;;;7.50;24.60;;;;;;4911380;29;20201;-58
2023/12/18 03:41:33;;;;;;;17.80;16.60;;;7.40;24.90;;;;;;4901307;29;20211;-55
2023/12/18 03:43:59;;;;;;;17.77;16.67;;;7.40;24.80;;;;;;4912427;29;20237;-56
2023/12/18 03:46:24;;;;;;;18.67;17.43;;;7.50;24.60;;;;;;4910260;29;20616;-56
2023/12/18 03:48:50;;;;;;;19.90;18.70;;;7.50;24.40;;;;;;4912340;29;20185;-56
2023/12/18 03:51:16;;;;;;;19.40;18.10;;;7.20;24.70;;;;;;4921263;29;20269;-56
2023/12/18 03:53:41;;;;;;;19.80;18.50;;;7.00;24.90;;;;;;4909279;29;20188;-56
2023/12/18 03:56:07;;;;;;;19.27;18.00;;;7.10;25.30;;;;;;4901763;29;20620;-56
2023/12/18 03:58:32;;;;;;;18.60;17.50;;;7.20;24.80;;;;;;4903377;29;20226;-56
2023/12/18 04:00:58;;;;;;;18.10;16.90;;;7.30;24.50;;;;;;4901733;29;20618;-56
2023/12/18 04:03:24;;;;;;;18.93;17.73;;;7.30;24.20;;;;;;4916726;29;21149;-56
2023/12/18 04:05:49;;;;;;;19.03;17.87;;;7.30;24.10;;;;;;4904935;29;20552;-57
2023/12/18 04:08:15;;;;;;;18.70;17.33;;;7.40;23.80;;;;;;4908774;29;20185;-56
2023/12/18 04:10:40;;;;;;;20.07;18.57;;;7.40;23.60;;;;;;4906754;29;20181;-56
2023/12/18 04:13:06;;;;;;;17.87;16.77;;;7.40;23.60;;;;;;4909796;29;20556;-56
2023/12/18 04:15:32;;;;;;;17.47;16.37;;;7.30;23.60;;;;;;4917805;29;20600;-55
2023/12/18 04:17:57;;;;;;;16.20;15.20;;;7.30;23.80;;;;;;4903528;29;20185;-56
2023/12/18 04:20:23;;;;;;;18.47;17.37;;;7.30;23.80;;;;;;4903803;29;20189;-57
2023/12/18 04:22:50;;;;;;;19.03;17.83;;;7.50;23.50;;;;;;4911519;29;20184;-56
2023/12/18 04:25:15;;;;;;;18.07;16.87;;;7.60;23.00;;;;;;4908729;29;20663;-57
2023/12/18 04:27:41;;;;;;;17.93;16.73;;;7.70;22.50;;;;;;4900707;29;20515;-57
2023/12/18 04:30:07;;;;;;;15.90;14.90;;;7.80;22.60;;;;;;4900856;29;20274;-57
2023/12/18 04:32:33;;;;;;;18.10;16.80;;;7.80;22.30;;;;;;4898294;29;20573;-57
2023/12/18 04:34:58;;;;;;;15.87;14.87;;;7.90;22.00;;;;;;4916416;29;20413;-55
2023/12/18 04:37:24;;;;;;;17.13;15.93;;;8.00;22.00;;;;;;4915953;29;20641;-55
2023/12/18 04:39:50;;;;;;;16.00;14.90;;;8.00;21.90;;;;;;4900695;29;20561;-57
2023/12/18 04:42:15;;;;;;;16.07;14.93;;;7.70;22.50;;;;;;4900396;29;20219;-55
2023/12/18 04:44:41;;;;;;;15.90;14.87;;;7.60;22.90;;;;;;4916228;29;20177;-52
2023/12/18 04:47:06;;;;;;;17.10;16.10;;;7.50;22.40;;;;;;4915205;29;20297;-49
2023/12/18 04:49:32;;;;;;;16.63;15.37;;;7.40;22.50;;;;;;4900252;29;20351;-52
2023/12/18 04:51:58;;;;;;;17.27;16.13;;;7.00;23.80;;;;;;4900369;29;20803;-52
2023/12/18 04:54:23;;;;;;;17.53;16.40;;;7.00;24.30;;;;;;4916064;29;20244;-49
2023/12/18 04:56:49;;;;;;;17.63;16.40;;;6.90;23.90;;;;;;4900260;29;20243;-50
2023/12/18 04:59:14;;;;;;;17.50;16.40;;;6.80;24.50;;;;;;4899830;29;20181;-48
2023/12/18 05:01:40;;;;;;;17.17;16.07;;;6.80;25.00;;;;;;4899888;29;20221;-48
2023/12/18 05:04:06;;;;;;;17.93;16.53;;;7.10;24.30;;;;;;4900296;29;20189;-49
2023/12/18 05:06:31;;;;;;;17.40;16.00;;;7.30;23.80;;;;;;4900124;29;20185;-47
2023/12/18 05:08:57;;;;;;;18.27;16.93;;;7.40;23.10;;;;;;4899634;29;20176;-50
2023/12/18 05:11:27;;;;;;;20.70;18.90;;;7.50;22.70;;;;;;4915658;29;20723;-48
2023/12/18 05:13:52;;;;;;;17.97;16.77;;;7.60;22.40;;;;;;4899945;29;20181;-49
2023/12/18 05:16:21;;;;;;;17.47;16.40;;;7.70;22.50;;;;;;4900036;29;20429;-46
2023/12/18 05:18:47;;;;;;;17.80;16.60;;;7.70;22.40;;;;;;4899379;29;20328;-49
2023/12/18 05:21:12;;;;;;;18.13;16.80;;;7.80;22.30;;;;;;4899338;29;20559;-46
2023/12/18 05:23:39;;;;;;;19.57;18.17;;;7.80;22.20;;;;;;4899841;29;20424;-48
2023/12/18 05:26:05;;;;;;;18.80;17.50;;;7.90;22.10;;;;;;4899802;29;20229;-47
2023/12/18 05:28:31;;;;;;;20.20;18.90;;;7.90;21.90;;;;;;4899431;29;20502;-49
2023/12/18 05:30:56;;;;;;;19.17;17.77;;;7.90;21.80;;;;;;4899483;29;20207;-50
2023/12/18 05:33:22;;;;;;;18.40;17.10;;;7.90;21.80;;;;;;4899633;29;20502;-51
2023/12/18 05:35:48;;;;;;;17.77;16.27;;;7.80;21.90;;;;;;4915260;29;20188;-48
2023/12/18 05:38:13;;;;;;;17.90;16.77;;;7.80;22.10;;;;;;4915988;29;20219;-49
2023/12/18 05:40:39;;;;;;;17.97;16.47;;;7.80;22.00;;;;;;4899297;29;20630;-46
2023/12/18 05:43:05;;;;;;;17.13;15.93;;;7.80;22.00;;;;;;4899609;29;20184;-48
2023/12/18 05:45:32;;;;;;;17.00;16.00;;;7.80;21.80;;;;;;4899589;29;20192;-56
2023/12/18 05:47:58;;;;;;;17.70;16.57;;;7.80;21.80;;;;;;4899525;29;20432;-58
2023/12/18 05:50:24;;;;;;;14.37;13.47;;;7.70;21.70;;;;;;4899264;29;20789;-59
2023/12/18 05:52:50;;;;;;;15.27;14.20;;;7.80;22.60;;;;;;4899272;29;20480;-60
2023/12/18 05:55:16;;;;;;;15.40;14.50;;;7.70;22.50;;;;;;4899317;29;20181;-59
2023/12/18 05:57:42;;;;;;;14.43;13.53;;;7.60;22.40;;;;;;4898713;29;20203;-57
2023/12/18 06:00:09;;;;;;;16.30;15.30;;;7.60;23.50;;;;;;4899310;29;20417;-55
2023/12/18 06:02:35;;;;;;;16.43;15.40;;;7.60;23.50;;;;;;4899249;29;20208;-55
2023/12/18 06:05:01;;;;;;;16.67;15.67;;;7.60;24.20;;;;;;4899048;29;20480;-54
2023/12/18 06:07:26;;;;;;;17.47;16.27;;;7.60;25.50;;;;;;4898844;29;20420;-52
2023/12/18 06:09:52;;;;;;;16.50;15.43;;;7.60;25.10;;;;;;4905689;29;20425;-50
2023/12/18 06:12:17;;;;;;;17.30;16.10;;;7.60;24.20;;;;;;4914935;29;20644;-52
2023/12/18 06:14:43;;;;;;;17.77;16.57;;;7.60;23.10;;;;;;4914875;29;20227;-49
2023/12/18 06:17:09;;;;;;;17.53;16.33;;;7.60;22.80;;;;;;4914557;29;20266;-48
2023/12/18 06:19:35;;;;;;;17.87;16.67;;;7.60;22.40;;;;;;4916894;29;20187;-46
2023/12/18 06:22:02;;;;;;;16.23;15.23;;;7.60;22.40;;;;;;4907537;29;20472;-51
2023/12/18 06:24:28;;;;;;;16.33;15.43;;;7.40;22.70;;;;;;4907559;29;20176;-51
2023/12/18 06:26:53;;;;;;;15.90;14.90;;;7.40;22.60;;;;;;4908900;29;20412;-50
2023/12/18 06:29:20;;;;;;;14.93;14.03;;;7.40;22.30;;;;;;4906993;29;20424;-52
2023/12/18 06:31:45;;;;;;;15.13;14.23;;;7.50;22.30;;;;;;4900615;29;20228;-47
2023/12/18 06:34:11;;;;;;;14.10;13.20;;;7.50;22.30;;;;;;4900757;29;20424;-48
2023/12/18 06:36:37;;;;;;;13.40;12.70;;;7.50;22.10;;;;;;4900744;29;20638;-55
2023/12/18 06:39:03;;;;;;;14.67;13.87;;;7.40;22.30;;;;;;4898442;29;20230;-55
2023/12/18 06:41:29;;;;;;;13.87;12.97;;;7.40;22.30;;;;;;4898603;29;20559;-55
2023/12/18 06:43:55;;;;;;;16.43;15.43;;;7.30;22.20;;;;;;4899232;29;20189;-55
2023/12/18 06:46:21;;;;;;;15.23;14.30;;;7.30;22.20;;;;;;4899069;29;20436;-54
2023/12/18 06:48:47;;;;;;;16.80;15.70;;;7.30;22.20;;;;;;4894816;29;20189;-56
2023/12/18 06:51:12;;;;;;;16.25;15.15;;;7.30;22.20;;;;;;4902390;29;21002;-53
2023/12/18 06:53:38;;;;;;;17.07;15.97;;;7.30;23.00;;;;;;4898418;29;20212;-51
2023/12/18 06:56:04;;;;;;;15.77;14.80;;;7.30;22.70;;;;;;4909744;29;20185;-52
2023/12/18 06:58:30;;;;;;;18.67;17.47;;;7.30;22.90;;;;;;4897913;29;20549;-49
2023/12/18 07:00:55;;;;;;;17.40;16.27;;;7.30;22.70;;;;;;4898225;29;20467;-52
2023/12/18 07:03:21;;;;;;;17.27;16.27;;;7.30;22.70;;;;;;4897815;29;20191;-49
2023/12/18 07:05:47;;;;;;;17.57;16.57;;;7.30;22.80;;;;;;4898297;29;20184;-52
2023/12/18 07:08:12;;;;;;;18.30;16.80;;;7.30;22.70;;;;;;4909101;29;20189;-53
2023/12/18 07:10:39;;;;;;;16.30;15.30;;;7.30;22.80;;;;;;4915080;29;20654;-48
2023/12/18 07:13:04;;;;;;;16.33;15.23;;;7.30;22.60;;;;;;4917659;29;20191;-50
2023/12/18 07:15:30;;;;;;;16.80;15.80;;;7.30;23.30;;;;;;4917629;29;20503;-48
2023/12/18 07:17:59;;;;;;;17.90;16.70;;;7.40;24.20;;;;;;4907564;29;20240;-52
2023/12/18 07:20:25;;;;;;;18.13;16.73;;;7.40;24.60;;;;;;4898604;29;20181;-52
2023/12/18 07:22:50;;;;;;;18.10;16.80;;;7.40;23.90;;;;;;4912128;29;20435;-49
2023/12/18 07:25:16;;;;;;;17.87;16.73;;;7.40;23.10;;;;;;4913613;29;20899;-49
2023/12/18 07:27:44;;;;;;;17.63;16.43;;;7.40;23.00;;;;;;4908969;29;20177;-49
2023/12/18 07:30:11;;;;;;;17.10;15.90;;;7.30;23.00;;;;;;4909115;29;20417;-49
2023/12/18 07:32:37;;;;;;;18.00;16.87;;;7.30;23.10;;;;;;4911352;29;20506;-52
2023/12/18 07:35:04;;;;;;;18.83;17.53;;;7.30;22.90;;;;;;4911424;29;20552;-56
2023/12/18 07:37:30;;;;;;;18.80;17.47;;;7.40;22.90;;;;;;4908618;29;20208;-50
2023/12/18 07:39:56;;;;;;;17.90;16.70;;;7.40;22.90;;;;;;4910898;29;20416;-50
2023/12/18 07:42:22;;;;;;;17.57;16.37;;;7.40;22.70;;;;;;4909666;29;20457;-49
2023/12/18 07:44:48;;;;;;;17.60;16.50;;;7.40;22.60;;;;;;4910022;29;20415;-50
2023/12/18 07:47:17;;;;;;;15.67;14.57;;;7.40;22.80;;;;;;4910572;29;20496;-50
2023/12/18 07:49:43;;;;;;;16.20;15.20;;;7.40;22.80;;;;;;4904521;29;20620;-51
2023/12/18 07:52:09;;;;;;;17.37;16.03;;;7.40;22.60;;;;;;4916711;29;20480;-52
2023/12/18 07:54:35;;;;;;;16.57;15.47;;;7.50;22.40;;;;;;4915218;29;20432;-50
2023/12/18 07:57:02;;;;;;;17.40;15.97;;;7.50;22.40;;;;;;4914755;29;20185;-52
2023/12/18 07:59:28;;;;;;;16.83;15.43;;;7.50;22.40;;;;;;4906524;29;20626;-48
2023/12/18 08:01:54;;;;;;;17.10;15.80;;;7.50;22.10;;;;;;4900583;29;20499;-48
2023/12/18 08:04:20;;;;;;;17.03;15.83;;;7.40;22.30;;;;;;4900648;29;20448;-48
2023/12/18 08:06:47;;;;;;;17.57;16.27;;;7.30;22.20;;;;;;4900258;29;20180;-47
2023/12/18 08:09:16;;;;;;;18.23;16.97;;;7.00;22.30;;;;;;4900353;29;20267;-50
2023/12/18 08:11:42;;;;;;;18.63;17.30;;;6.70;23.10;;;;;;4900652;29;20727;-50
2023/12/18 08:14:07;;;;;;;17.73;16.53;;;6.50;23.90;;;;;;4900818;29;20481;-49
2023/12/18 08:16:33;;;;;;;16.53;15.30;;;6.40;24.20;;;;;;4900533;29;20240;-49
2023/12/18 08:18:58;;;;;;;18.87;17.47;;;6.30;24.90;;;;;;4900439;29;20180;-48
2023/12/18 08:21:26;;;;;;;17.37;16.17;;;6.40;24.90;;;;;;4899431;29;20215;-50
2023/12/18 08:23:52;;;;;;;16.90;15.73;;;6.40;24.60;;;;;;4910769;29;20181;-51
2023/12/18 08:26:17;;;;;;;17.37;16.10;;;6.30;24.90;;;;;;4916545;29;20519;-51
2023/12/18 08:28:44;;;;;;;16.87;15.67;;;6.30;25.10;;;;;;4907606;29;20548;-52
2023/12/18 08:31:11;;;;;;;16.90;15.57;;;6.20;25.00;;;;;;4900201;29;20196;-51
2023/12/18 08:33:40;;;;;;;17.70;16.50;;;6.10;25.30;;;;;;4900240;29;20428;-47
2023/12/18 08:36:06;;;;;;;16.87;15.70;;;6.10;25.40;;;;;;4903671;29;20456;-50
2023/12/18 08:38:32;;;;;;;15.70;14.70;;;6.10;25.40;;;;;;4900586;29;20447;-48
2023/12/18 08:40:57;;;;;;;17.70;16.50;;;6.20;25.90;;;;;;4908731;29;20472;-47
2023/12/18 08:43:23;;;;;;;16.90;15.50;;;6.10;25.90;;;;;;4915200;29;20196;-48
2023/12/18 08:45:49;;;;;;;16.77;15.67;;;6.10;26.30;;;;;;4902459;29;20328;-50
2023/12/18 08:48:15;;;;;;;17.40;16.20;;;6.20;25.90;;;;;;4899572;29;20696;-48
2023/12/18 08:50:41;;;;;;;17.30;16.00;;;6.30;26.50;;;;;;4898808;29;20185;-46
2023/12/18 08:53:07;;;;;;;16.57;15.47;;;6.40;25.50;;;;;;4906585;29;20921;-48
2023/12/18 08:55:38;;;;;;;16.80;15.70;;;6.50;24.90;;;;;;4916087;29;20431;-47
2023/12/18 08:58:07;;;;;;;17.13;15.93;;;6.50;24.40;;;;;;4899295;29;20204;-49
2023/12/18 09:00:32;;;;;;;16.17;14.97;;;6.70;24.90;;;;;;4902182;29;20428;-47
2023/12/18 09:02:58;;;;;;;15.57;14.57;;;6.90;24.20;;;;;;4910654;29;20485;-48
2023/12/18 09:05:24;;;;;;;17.10;16.00;;;7.20;23.40;;;;;;4898994;29;20189;-50
2023/12/18 09:07:50;;;;;;;16.00;14.80;;;7.30;23.00;;;;;;4910337;29;20512;-50
2023/12/18 09:10:22;;;;;;;16.53;15.33;;;7.50;22.60;;;;;;4909895;29;20468;-52
2023/12/18 09:12:48;;;;;;;17.47;16.37;;;7.60;22.40;;;;;;4910769;29;20195;-48
2023/12/18 09:15:14;;;;;;;16.37;15.27;;;7.60;21.90;;;;;;4899492;29;20428;-50
2023/12/18 09:17:40;;;;;;;17.57;16.27;;;7.50;22.40;;;;;;4909889;29;21008;-49
2023/12/18 09:20:06;;;;;;;16.53;15.60;;;7.60;22.40;;;;;;4898631;29;20441;-51
2023/12/18 09:22:31;;;;;;;16.20;15.20;;;7.60;22.40;;;;;;4904790;29;20624;-48
2023/12/18 09:24:57;;;;;;;17.33;16.23;;;7.60;22.40;;;;;;4910837;29;20417;-52
2023/12/18 09:27:23;;;;;;;16.90;15.80;;;7.60;22.40;;;;;;4914472;29;20177;-50
2023/12/18 09:29:48;;;;;;;16.80;15.77;;;7.70;22.50;;;;;;4904435;29;20196;-48
2023/12/18 09:32:15;;;;;;;17.10;15.97;;;7.70;22.30;;;;;;4911377;29;20194;-50
2023/12/18 09:34:40;;;;;;;16.87;15.67;;;7.70;22.50;;;;;;4918341;29;20188;-51
2023/12/18 09:37:06;;;;;;;18.37;17.13;;;7.70;22.50;;;;;;4899250;29;20428;-52
2023/12/18 09:39:31;;;;;;;17.13;15.93;;;7.50;22.40;;;;;;4897798;29;20200;-52
2023/12/18 09:42:05;;;;;;;16.93;15.63;;;7.40;23.00;;;;;;4889465;29;20205;-52
2023/12/18 09:44:31;;;;;;;18.80;17.40;;;7.10;23.50;;;;;;4913690;29;20336;-48
2023/12/18 09:47:00;;;;;;;17.13;15.93;;;7.10;23.90;;;;;;4898288;29;20978;-50
2023/12/18 09:49:26;;;;;;;18.70;17.30;;;7.20;24.00;;;;;;4894398;29;20554;-51
2023/12/18 09:52:03;;;;;;;16.23;15.23;;;7.40;23.80;;;;;;4902636;29;20515;-57
2023/12/18 09:54:29;;;;;;;16.73;15.53;;;7.50;23.50;;;;;;4898766;29;20563;-57
2023/12/18 09:56:57;;;;;;;16.53;15.37;;;7.50;23.60;;;;;;4910597;29;20476;-57
2023/12/18 09:59:23;;;;;;;17.83;16.30;;;7.70;23.00;;;;;;4907163;29;20437;-57
2023/12/18 10:01:50;;;;;;;15.53;14.50;;;7.80;22.50;;;;;;4903391;29;20536;-57
2023/12/18 10:04:16;;;;;;;16.47;15.37;;;7.90;22.60;;;;;;4915579;29;20419;-57
2023/12/18 10:06:42;;;;;;;15.77;14.63;;;7.90;22.60;;;;;;4904337;29;20968;-57
2023/12/18 10:09:15;;;;;;;15.67;14.50;;;8.00;22.60;;;;;;4904163;29;20420;-57
2023/12/18 10:11:44;;;;;;;15.83;14.90;;;8.10;22.40;;;;;;4891283;29;20211;-57
2023/12/18 10:14:13;;;;;;;15.63;14.40;;;8.20;22.20;;;;;;4904181;29;20794;-57
2023/12/18 10:16:39;;;;;;;18.70;17.50;;;8.30;21.90;;;;;;4916279;29;20519;-56
2023/12/18 10:19:05;;;;;;;17.17;15.97;;;8.20;22.10;;;;;;4907238;29;20965;-57
2023/12/18 10:21:31;;;;;;;17.97;16.50;;;8.10;22.70;;;;;;4900379;29;20504;-57
2023/12/18 10:23:57;;;;;;;17.60;16.20;;;8.10;22.70;;;;;;4916154;29;20191;-57
2023/12/18 10:26:23;;;;;;;17.57;16.27;;;8.20;22.80;;;;;;4924972;29;20416;-58
2023/12/18 10:28:50;;;;;;;17.17;15.57;;;8.30;22.90;;;;;;4906494;29;20423;-58
2023/12/18 10:31:17;;;;;;;17.80;16.43;;;8.40;22.90;;;;;;4893269;29;20189;-58
2023/12/18 10:33:42;;;;;;;18.00;16.60;;;8.50;22.60;;;;;;4898058;29;20498;-57
2023/12/18 10:36:09;;;;;;;16.93;15.80;;;8.50;22.40;;;;;;4909394;29;20854;-57
2023/12/18 10:38:36;;;;;;;17.30;16.10;;;8.50;22.10;;;;;;4901289;29;20295;-57
2023/12/18 10:41:04;;;;;;;18.67;17.23;;;8.60;22.40;;;;;;4904217;29;20523;-50
2023/12/18 10:43:32;;;;;;;17.90;16.57;;;8.60;22.00;;;;;;4912464;29;20429;-47
2023/12/18 10:45:59;;;;;;;17.63;16.50;;;8.60;21.80;;;;;;4905870;29;20433;-47
2023/12/18 10:48:25;;;;;;;18.80;17.50;;;8.70;21.70;;;;;;4901231;29;20435;-46
2023/12/18 10:50:55;;;;;;;17.60;16.50;;;8.80;21.50;;;;;;4917458;29;20452;-50
2023/12/18 10:53:22;;;;;;;17.70;16.33;;;8.90;21.30;;;;;;4919805;29;20471;-58
2023/12/18 10:55:49;;;;;;;18.33;16.97;;;9.00;21.10;;;;;;4902193;29;20421;-58
2023/12/18 10:58:16;;;;;;;16.47;15.17;;;9.10;21.10;;;;;;4902090;29;20417;-58
2023/12/18 11:00:44;;;;;;;17.73;16.13;;;9.20;20.90;;;;;;4907718;29;20424;-57
2023/12/18 11:03:10;;;;;;;17.73;16.53;;;9.30;20.90;;;;;;4909540;29;20448;-56
2023/12/18 11:05:47;;;;;;;17.07;16.07;;;9.40;20.60;;;;;;4903889;29;20425;-56
2023/12/18 11:08:13;;;;;;;17.80;16.50;;;9.40;20.30;;;;;;4900220;29;20428;-58
2023/12/18 11:10:40;;;;;;;16.17;15.10;;;9.50;19.80;;;;;;4910832;29;20476;-57
2023/12/18 11:13:24;;;;;;;17.37;16.13;;;9.60;19.80;;;;;;4907491;29;20184;-58
2023/12/18 11:15:59;;;;;;;16.20;15.20;;;9.60;20.70;;;;;;4922343;29;20430;-47
2023/12/18 11:18:39;;;;;;;16.93;15.60;;;9.70;21.50;;;;;;4923063;29;20439;-51
2023/12/18 11:21:05;;;;;;;17.47;16.07;;;9.80;21.10;;;;;;4901442;29;20468;-51
2023/12/18 11:23:40;;;;;;;17.13;15.83;;;9.70;19.70;;;;;;4902046;29;20409;-49
2023/12/18 11:26:10;;;;;;;16.67;15.57;;;9.50;20.20;;;;;;4897041;29;20240;-52
2023/12/18 11:28:37;;;;;;;18.77;17.37;;;9.50;20.10;;;;;;4904977;29;20428;-50
2023/12/18 11:31:05;;;;;;;17.60;16.50;;;9.50;20.10;;;;;;4902645;29;20905;-50
2023/12/18 11:33:31;;;;;;;18.37;16.77;;;9.50;20.40;;;;;;4901870;29;20432;-49
2023/12/18 11:35:57;;;;;;;18.10;16.67;;;9.50;20.50;;;;;;4901515;29;20819;-47
2023/12/18 11:38:24;;;;;;;17.70;16.40;;;9.60;20.60;;;;;;4925464;29;20204;-59
2023/12/18 11:40:52;;;;;;;17.03;15.93;;;9.60;20.50;;;;;;4905258;29;20423;-59
2023/12/18 11:43:45;;;;;;;16.87;15.77;;;9.70;20.10;;;;;;4903291;29;20955;-58
2023/12/18 11:46:13;;;;;;;17.50;16.30;;;9.70;19.90;;;;;;4899665;29;20519;-59
2023/12/18 11:48:40;;;;;;;18.10;16.60;;;9.70;20.00;;;;;;4903338;29;20420;-58
2023/12/18 11:51:06;;;;;;;19.60;18.20;;;9.80;19.80;;;;;;4910558;29;20424;-58
2023/12/18 11:53:34;;;;;;;17.90;16.60;;;9.80;19.90;;;;;;4901395;29;20420;-58
2023/12/18 11:56:10;;;;;;;17.60;16.30;;;9.80;20.00;;;;;;4913737;29;20258;-58
2023/12/18 11:58:38;;;;;;;17.67;16.27;;;9.80;19.90;;;;;;4903665;29;20884;-58
2023/12/18 12:01:05;;;;;;;17.60;16.30;;;9.60;20.10;;;;;;4914571;29;20479;-58
2023/12/18 12:03:32;;;;;;;18.47;17.07;;;9.60;20.30;;;;;;4916973;29;20433;-59
2023/12/18 12:05:58;;;;;;;17.77;16.57;;;9.70;20.30;;;;;;4906035;29;20416;-60
2023/12/18 12:08:24;;;;;;;18.07;16.67;;;9.80;20.30;;;;;;4906526;29;20947;-59
2023/12/18 12:10:50;;;;;;;18.67;17.10;;;9.80;20.40;;;;;;4900999;29;20502;-59
2023/12/18 12:13:24;;;;;;;19.27;17.30;;;9.90;20.50;;;;;;4904998;29;20829;-58
2023/12/18 12:15:58;;;;;;;18.63;17.00;;;9.90;20.60;;;;;;4897501;29;20415;-57
2023/12/18 12:18:34;;;;;;;20.03;18.33;;;9.90;20.80;;;;;;4919483;29;20514;-58
2023/12/18 12:21:00;;;;;;;19.30;17.70;;;9.80;21.00;;;;;;4920376;29;20463;-58
2023/12/18 12:23:26;;;;;;;19.30;17.93;;;9.80;20.90;;;;;;4909676;29;20421;-58
2023/12/18 12:25:56;;;;;;;18.37;17.07;;;9.90;20.90;;;;;;4910381;29;20445;-59
2023/12/18 12:28:22;;;;;;;19.90;18.40;;;9.90;20.60;;;;;;4905058;29;20508;-59
2023/12/18 12:30:48;;;;;;;19.03;17.00;;;9.90;20.10;;;;;;4905862;29;20504;-59
2023/12/18 12:33:16;;;;;;;17.73;16.63;;;9.90;20.20;;;;;;4918468;29;20427;-59